createdAt,value
2018-02-12T00:00:47.285Z,1.70
2018-02-12T00:02:50.735Z,1.70
2018-02-12T00:04:53.393Z,1.70
2018-02-12T00:06:56.759Z,1.80
2018-02-12T00:08:59.374Z,1.80
2018-02-12T00:11:02.105Z,1.80
2018-02-12T00:13:05.499Z,1.70
2018-02-12T00:15:08.210Z,1.70
2018-02-12T00:17:11.604Z,1.70
2018-02-12T00:19:14.204Z,1.70
2018-02-12T00:21:16.835Z,1.70
2018-02-12T00:23:19.588Z,1.70
2018-02-12T00:25:22.194Z,1.70
2018-02-12T00:27:24.826Z,1.70
2018-02-12T00:29:27.464Z,1.70
2018-02-12T00:31:30.079Z,1.60
2018-02-12T00:33:32.743Z,1.60
2018-02-12T00:35:35.346Z,1.60
2018-02-12T00:37:37.985Z,1.50
2018-02-12T00:39:41.404Z,1.60
2018-02-12T00:41:44.795Z,1.60
2018-02-12T00:43:47.434Z,1.50
2018-02-12T00:45:50.054Z,1.50
2018-02-12T00:47:52.704Z,1.40
2018-02-12T00:49:55.291Z,1.40
2018-02-12T00:51:57.899Z,1.40
2018-02-12T00:54:01.298Z,1.50
2018-02-12T00:56:03.909Z,1.50
2018-02-12T00:58:06.712Z,1.50
2018-02-12T01:00:10.097Z,1.50
2018-02-12T01:02:12.755Z,1.50
2018-02-12T01:04:15.516Z,1.50
2018-02-12T01:06:19.044Z,1.60
2018-02-12T01:08:22.401Z,1.60
2018-02-12T01:10:25.027Z,1.50
2018-02-12T01:12:27.780Z,1.50
2018-02-12T01:14:30.354Z,1.50
2018-02-12T01:16:32.952Z,1.50
2018-02-12T01:18:35.584Z,1.50
2018-02-12T01:20:38.184Z,1.50
2018-02-12T01:22:40.820Z,1.40
2018-02-12T01:24:44.340Z,1.30
2018-02-12T01:26:47.709Z,1.40
2018-02-12T01:28:50.450Z,1.40
2018-02-12T01:30:53.828Z,1.30
2018-02-12T01:32:56.457Z,1.30
2018-02-12T01:34:59.151Z,1.40
2018-02-12T01:37:02.535Z,1.30
2018-02-12T01:39:05.168Z,1.30
2018-02-12T01:41:08.607Z,1.30
2018-02-12T01:43:11.198Z,1.30
2018-02-12T01:45:13.791Z,1.30
2018-02-12T01:47:16.436Z,1.30
2018-02-12T01:49:19.165Z,1.30
2018-02-12T01:51:22.592Z,1.30
2018-02-12T01:53:25.282Z,1.40
2018-02-12T01:55:28.795Z,1.20
2018-02-12T01:57:32.180Z,1.20
2018-02-12T01:59:34.785Z,1.20
2018-02-12T02:01:37.416Z,1.30
2018-02-12T02:03:40.096Z,1.20
2018-02-12T02:05:43.488Z,1.20
2018-02-12T02:07:46.145Z,1.20
2018-02-12T02:09:48.806Z,1.30
2018-02-12T02:11:52.212Z,1.20
2018-02-12T02:13:55.672Z,1.30
2018-02-12T02:15:58.314Z,1.30
2018-02-12T02:18:01.085Z,1.30
2018-02-12T02:20:03.737Z,1.30
2018-02-12T02:22:07.147Z,1.40
2018-02-12T02:24:09.836Z,1.30
2018-02-12T02:26:13.248Z,1.50
2018-02-12T02:28:16.622Z,1.50
2018-02-12T02:30:19.240Z,1.50
2018-02-12T02:32:21.928Z,1.40
2018-02-12T02:34:24.585Z,1.40
2018-02-12T02:36:27.255Z,1.50
2018-02-12T02:38:30.640Z,1.50
2018-02-12T02:40:33.322Z,1.50
2018-02-12T02:42:35.933Z,1.50
2018-02-12T02:44:38.612Z,1.50
2018-02-12T02:46:41.251Z,1.50
2018-02-12T02:48:44.683Z,1.50
2018-02-12T02:50:47.432Z,1.50
2018-02-12T02:52:50.175Z,1.40
2018-02-12T02:54:52.826Z,1.40
2018-02-12T02:56:55.486Z,1.40
2018-02-12T02:58:58.153Z,1.40
2018-02-12T03:01:01.533Z,1.30
2018-02-12T03:03:04.192Z,1.30
2018-02-12T03:05:06.860Z,1.30
2018-02-12T03:07:10.278Z,1.40
2018-02-12T03:09:13.688Z,1.40
2018-02-12T03:11:16.338Z,1.40
2018-02-12T03:13:18.988Z,1.40
2018-02-12T03:15:22.383Z,1.40
2018-02-12T03:17:25.108Z,1.40
2018-02-12T03:19:27.896Z,1.40
2018-02-12T03:21:31.297Z,1.40
2018-02-12T03:23:33.882Z,1.40
2018-02-12T03:25:36.517Z,1.40
2018-02-12T03:27:39.879Z,1.50
2018-02-12T03:29:42.489Z,1.50
2018-02-12T03:31:45.144Z,1.50
2018-02-12T03:33:47.786Z,1.40
2018-02-12T03:35:50.397Z,1.50
2018-02-12T03:37:53.028Z,1.50
2018-02-12T03:39:55.717Z,1.50
2018-02-12T03:41:58.392Z,1.50
2018-02-12T03:44:01.733Z,1.50
2018-02-12T03:46:06.189Z,1.50
2018-02-12T03:48:08.833Z,1.50
2018-02-12T03:50:11.472Z,1.50
2018-02-12T03:52:14.237Z,1.60
2018-02-12T03:54:17.601Z,1.50
2018-02-12T03:56:20.243Z,1.50
2018-02-12T03:58:23.623Z,1.50
2018-02-12T04:00:26.269Z,1.50
2018-02-12T04:02:28.948Z,1.60
2018-02-12T04:04:32.375Z,1.60
2018-02-12T04:06:35.739Z,1.60
2018-02-12T04:08:38.381Z,1.60
2018-02-12T04:10:41.783Z,1.50
2018-02-12T04:12:45.164Z,1.60
2018-02-12T04:14:47.769Z,1.60
2018-02-12T04:16:50.429Z,1.60
2018-02-12T04:18:53.049Z,1.60
2018-02-12T04:20:55.789Z,1.50
2018-02-12T04:22:59.169Z,1.70
2018-02-12T04:25:01.910Z,1.60
2018-02-12T04:27:05.267Z,1.70
2018-02-12T04:29:07.913Z,1.60
2018-02-12T04:31:11.425Z,1.70
2018-02-12T04:33:14.054Z,1.60
2018-02-12T04:35:16.659Z,1.60
2018-02-12T04:37:19.293Z,1.60
2018-02-12T04:39:21.935Z,1.60
2018-02-12T04:41:24.603Z,1.60
2018-02-12T04:43:28.019Z,1.60
2018-02-12T04:45:31.434Z,1.60
2018-02-12T04:47:34.033Z,1.60
2018-02-12T04:49:37.429Z,1.70
2018-02-12T04:51:40.022Z,1.60
2018-02-12T04:53:42.655Z,1.70
2018-02-12T04:55:45.243Z,1.70
2018-02-12T04:57:48.610Z,1.60
2018-02-12T04:59:51.269Z,1.60
2018-02-12T05:01:53.890Z,1.60
2018-02-12T05:03:56.487Z,1.60
2018-02-12T05:05:59.233Z,1.70
2018-02-12T05:08:01.833Z,1.70
2018-02-12T05:10:05.349Z,1.70
2018-02-12T05:12:08.721Z,1.70
2018-02-12T05:14:11.359Z,1.70
2018-02-12T05:16:14.773Z,1.70
2018-02-12T05:18:18.240Z,1.70
2018-02-12T05:20:20.878Z,1.70
2018-02-12T05:22:24.263Z,1.60
2018-02-12T05:24:26.936Z,1.60
2018-02-12T05:26:29.665Z,1.60
2018-02-12T05:28:32.283Z,1.60
2018-02-12T05:30:34.960Z,1.50
2018-02-12T05:32:38.321Z,1.50
2018-02-12T05:34:40.996Z,1.40
2018-02-12T05:36:44.412Z,1.40
2018-02-12T05:38:47.013Z,1.40
2018-02-12T05:40:50.406Z,1.40
2018-02-12T05:42:53.116Z,1.40
2018-02-12T05:44:56.514Z,1.30
2018-02-12T05:46:59.167Z,1.20
2018-02-12T05:49:01.749Z,1.30
2018-02-12T05:51:04.400Z,1.20
2018-02-12T05:53:07.120Z,1.20
2018-02-12T05:55:10.525Z,1.20
2018-02-12T05:57:13.169Z,1.10
2018-02-12T05:59:15.808Z,1.20
2018-02-12T06:01:18.405Z,1.10
2018-02-12T06:03:21.115Z,1.10
2018-02-12T06:05:24.535Z,1.10
2018-02-12T06:07:27.920Z,1.10
2018-02-12T06:09:30.586Z,1.00
2018-02-12T06:11:33.229Z,1.00
2018-02-12T06:13:35.876Z,1.00
2018-02-12T06:15:38.533Z,0.90
2018-02-12T06:17:42.053Z,0.90
2018-02-12T06:19:45.415Z,1.00
2018-02-12T06:21:48.061Z,1.00
2018-02-12T06:23:51.528Z,1.00
2018-02-12T06:25:54.275Z,1.00
2018-02-12T06:27:56.869Z,1.10
2018-02-12T06:30:00.256Z,1.10
2018-02-12T06:32:02.899Z,1.10
2018-02-12T06:34:05.538Z,1.10
2018-02-12T06:36:08.139Z,1.10
2018-02-12T06:38:10.776Z,1.10
2018-02-12T06:40:14.196Z,1.20
2018-02-12T06:42:16.888Z,1.20
2018-02-12T06:44:20.265Z,1.20
2018-02-12T06:46:22.878Z,1.20
2018-02-12T06:48:25.522Z,1.20
2018-02-12T06:50:28.184Z,1.20
2018-02-12T06:52:31.601Z,1.20
2018-02-12T06:54:34.994Z,1.30
2018-02-12T06:56:37.711Z,1.30
2018-02-12T06:58:41.124Z,1.30
2018-02-12T07:00:45.045Z,1.20
2018-02-12T07:02:48.565Z,1.30
2018-02-12T07:04:51.969Z,1.40
2018-02-12T07:06:54.675Z,1.30
2018-02-12T07:08:58.054Z,1.30
2018-02-12T07:11:00.700Z,1.30
2018-02-12T07:13:03.381Z,1.30
2018-02-12T07:15:06.770Z,1.30
2018-02-12T07:17:09.415Z,1.30
2018-02-12T07:19:12.036Z,1.30
2018-02-12T07:21:14.690Z,1.30
2018-02-12T07:23:17.380Z,1.30
2018-02-12T07:25:20.790Z,1.20
2018-02-12T07:27:23.502Z,1.20
2018-02-12T07:29:26.905Z,1.20
2018-02-12T07:31:30.284Z,1.10
2018-02-12T07:33:32.925Z,1.20
2018-02-12T07:35:36.347Z,1.20
2018-02-12T07:37:39.742Z,1.20
2018-02-12T07:39:42.418Z,1.20
2018-02-12T07:41:45.052Z,1.30
2018-02-12T07:43:47.705Z,1.20
2018-02-12T07:45:50.455Z,1.20
2018-02-12T07:47:53.130Z,1.30
2018-02-12T07:49:56.519Z,1.30
2018-02-12T07:51:59.204Z,1.30
2018-02-12T07:54:01.842Z,1.40
2018-02-12T07:56:05.235Z,1.40
2018-02-12T07:58:07.830Z,1.40
2018-02-12T08:00:10.532Z,1.40
2018-02-12T08:02:13.260Z,1.40
2018-02-12T08:04:15.890Z,1.50
2018-02-12T08:06:18.517Z,1.60
2018-02-12T08:08:21.140Z,1.60
2018-02-12T08:10:24.662Z,1.70
2018-02-12T08:12:27.354Z,1.70
2018-02-12T08:14:30.816Z,1.80
2018-02-12T08:16:34.285Z,1.90
2018-02-12T08:18:37.685Z,1.90
2018-02-12T08:20:40.395Z,1.90
2018-02-12T08:22:43.808Z,2.00
2018-02-12T08:24:47.171Z,2.00
2018-02-12T08:26:49.822Z,2.00
2018-02-12T08:28:53.333Z,2.20
2018-02-12T08:30:56.850Z,2.40
2018-02-12T08:33:00.266Z,2.50
2018-02-12T08:35:03.661Z,2.70
2018-02-12T08:37:06.426Z,2.70
2018-02-12T08:39:09.176Z,2.80
2018-02-12T08:41:12.582Z,2.80
2018-02-12T08:43:15.984Z,2.80
2018-02-12T08:45:18.635Z,2.80
2018-02-12T08:47:21.264Z,2.80
2018-02-12T08:49:23.996Z,2.70
2018-02-12T08:51:27.376Z,2.60
2018-02-12T08:53:30.108Z,2.60
2018-02-12T08:55:33.571Z,2.50
2018-02-12T08:57:36.241Z,2.50
2018-02-12T08:59:38.920Z,2.50
2018-02-12T09:01:42.316Z,2.50
2018-02-12T09:03:44.985Z,2.40
2018-02-12T09:05:47.722Z,2.50
2018-02-12T09:07:50.432Z,2.50
2018-02-12T09:09:53.841Z,2.60
2018-02-12T09:11:56.533Z,2.60
2018-02-12T09:13:59.226Z,2.60
2018-02-12T09:16:01.874Z,2.60
2018-02-12T09:18:04.532Z,2.50
2018-02-12T09:20:07.918Z,2.40
2018-02-12T09:22:10.637Z,2.40
2018-02-12T09:24:14.157Z,2.10
2018-02-12T09:26:17.678Z,2.10
2018-02-12T09:28:21.074Z,2.10
2018-02-12T09:30:23.682Z,2.10
2018-02-12T09:32:27.052Z,2.20
2018-02-12T09:34:29.699Z,2.20
2018-02-12T09:36:33.103Z,2.20
2018-02-12T09:38:36.620Z,2.20
2018-02-12T09:40:39.219Z,2.20
2018-02-12T09:42:42.631Z,2.30
2018-02-12T09:44:46.051Z,2.40
2018-02-12T09:46:49.559Z,2.50
2018-02-12T09:48:52.971Z,2.50
2018-02-12T09:50:55.671Z,2.50
2018-02-12T09:52:59.137Z,2.70
2018-02-12T09:55:01.731Z,2.70
2018-02-12T09:57:04.356Z,2.80
2018-02-12T09:59:06.998Z,2.90
2018-02-12T10:01:09.673Z,3.10
2018-02-12T10:03:13.087Z,3.30
2018-02-12T10:05:15.697Z,3.30
2018-02-12T10:07:19.057Z,3.50
2018-02-12T10:09:22.527Z,3.60
2018-02-12T10:11:25.174Z,3.60
2018-02-12T10:13:27.770Z,3.70
2018-02-12T10:15:30.449Z,3.90
2018-02-12T10:17:33.053Z,3.90
2018-02-12T10:19:35.724Z,4.00
2018-02-12T10:21:38.367Z,4.00
2018-02-12T10:23:40.992Z,3.90
2018-02-12T10:25:44.418Z,3.80
2018-02-12T10:27:47.102Z,3.70
2018-02-12T10:29:50.488Z,3.70
2018-02-12T10:31:53.178Z,3.60
2018-02-12T10:33:55.777Z,3.50
2018-02-12T10:35:58.441Z,3.40
2018-02-12T10:38:01.068Z,3.30
2018-02-12T10:40:03.797Z,3.10
2018-02-12T10:42:07.167Z,3.00
2018-02-12T10:44:09.813Z,3.00
2018-02-12T10:46:13.208Z,3.00
2018-02-12T10:48:15.878Z,3.00
2018-02-12T10:50:18.487Z,2.90
2018-02-12T10:52:21.127Z,3.00
2018-02-12T10:54:23.767Z,3.00
2018-02-12T10:56:26.435Z,3.10
2018-02-12T10:58:29.208Z,3.10
2018-02-12T11:00:32.612Z,3.10
2018-02-12T11:02:35.353Z,3.10
2018-02-12T11:04:38.684Z,3.20
2018-02-12T11:06:41.354Z,3.20
2018-02-12T11:08:43.964Z,3.10
2018-02-12T11:10:46.552Z,3.20
2018-02-12T11:12:49.237Z,3.20
2018-02-12T11:14:51.864Z,3.20
2018-02-12T11:16:54.570Z,3.20
2018-02-12T11:18:57.204Z,3.20
2018-02-12T11:20:59.803Z,3.30
2018-02-12T11:23:03.259Z,3.40
2018-02-12T11:25:05.948Z,3.40
2018-02-12T11:27:08.540Z,3.50
2018-02-12T11:29:11.207Z,3.60
2018-02-12T11:31:13.792Z,3.80
2018-02-12T11:33:16.389Z,3.80
2018-02-12T11:35:19.105Z,3.80
2018-02-12T11:37:22.508Z,4.00
2018-02-12T11:39:26.134Z,3.90
2018-02-12T11:41:29.498Z,3.90
2018-02-12T11:43:32.151Z,3.90
2018-02-12T11:45:35.534Z,3.80
2018-02-12T11:47:38.183Z,3.80
2018-02-12T11:49:40.846Z,3.70
2018-02-12T11:51:43.657Z,3.60
2018-02-12T11:53:47.046Z,3.70
2018-02-12T11:55:49.659Z,3.70
2018-02-12T11:57:53.788Z,4.00
2018-02-12T11:59:57.223Z,4.00
2018-02-12T12:02:00.838Z,4.00
2018-02-12T12:04:03.515Z,4.00
2018-02-12T12:06:06.119Z,4.10
2018-02-12T12:08:09.481Z,4.20
2018-02-12T12:10:12.121Z,4.20
2018-02-12T12:12:15.536Z,4.00
2018-02-12T12:14:18.901Z,4.00
2018-02-12T12:16:22.470Z,4.10
2018-02-12T12:18:25.945Z,4.10
2018-02-12T12:20:28.553Z,4.10
2018-02-12T12:22:31.159Z,4.20
2018-02-12T12:24:33.820Z,4.20
2018-02-12T12:26:36.426Z,4.10
2018-02-12T12:28:39.075Z,4.20
2018-02-12T12:30:42.481Z,4.00
2018-02-12T12:32:45.848Z,4.00
2018-02-12T12:34:48.546Z,3.90
2018-02-12T12:36:51.185Z,3.90
2018-02-12T12:38:54.547Z,4.00
2018-02-12T12:40:57.196Z,3.90
2018-02-12T12:43:00.603Z,3.90
2018-02-12T12:45:03.243Z,3.90
2018-02-12T12:47:05.901Z,4.00
2018-02-12T12:49:08.549Z,3.90
2018-02-12T12:51:11.216Z,4.00
2018-02-12T12:53:13.892Z,4.10
2018-02-12T12:55:17.310Z,4.50
2018-02-12T12:57:20.724Z,4.60
2018-02-12T12:59:24.085Z,4.70
2018-02-12T13:01:26.796Z,4.60
2018-02-12T13:03:29.439Z,4.60
2018-02-12T13:05:32.844Z,4.40
2018-02-12T13:07:36.271Z,4.40
2018-02-12T13:09:39.770Z,4.20
2018-02-12T13:11:42.396Z,4.30
2018-02-12T13:13:45.123Z,4.20
2018-02-12T13:15:47.760Z,4.20
2018-02-12T13:17:51.120Z,4.30
2018-02-12T13:19:53.795Z,4.20
2018-02-12T13:21:56.429Z,4.10
2018-02-12T13:23:59.070Z,4.10
2018-02-12T13:26:02.486Z,4.10
2018-02-12T13:28:05.963Z,4.00
2018-02-12T13:30:08.560Z,4.00
2018-02-12T13:32:11.190Z,3.90
2018-02-12T13:34:14.631Z,3.90
2018-02-12T13:36:17.282Z,3.80
2018-02-12T13:38:20.005Z,3.80
2018-02-12T13:40:23.376Z,3.90
2018-02-12T13:42:26.016Z,3.90
2018-02-12T13:44:29.427Z,4.20
2018-02-12T13:46:32.844Z,4.40
2018-02-12T13:48:36.254Z,4.50
2018-02-12T13:50:38.954Z,4.50
2018-02-12T13:52:42.365Z,4.60
2018-02-12T13:54:45.890Z,4.60
2018-02-12T13:56:49.297Z,4.50
2018-02-12T13:58:52.711Z,4.60
2018-02-12T14:00:56.124Z,4.60
2018-02-12T14:02:59.511Z,4.60
2018-02-12T14:05:02.117Z,4.50
2018-02-12T14:07:04.836Z,4.50
2018-02-12T14:09:08.216Z,4.50
2018-02-12T14:11:10.837Z,4.50
2018-02-12T14:13:13.542Z,4.60
2018-02-12T14:15:16.910Z,4.70
2018-02-12T14:17:19.566Z,4.70
2018-02-12T14:19:22.260Z,4.70
2018-02-12T14:21:24.878Z,4.70
2018-02-12T14:23:27.540Z,4.70
2018-02-12T14:25:30.953Z,4.60
2018-02-12T14:27:34.352Z,4.60
2018-02-12T14:29:37.001Z,4.60
2018-02-12T14:31:39.637Z,4.50
2018-02-12T14:33:42.361Z,4.40
2018-02-12T14:35:45.777Z,4.10
2018-02-12T14:37:49.291Z,3.90
2018-02-12T14:39:51.984Z,3.90
2018-02-12T14:41:54.653Z,3.60
2018-02-12T14:43:57.267Z,3.20
2018-02-12T14:45:59.933Z,3.00
2018-02-12T14:48:02.557Z,2.80
2018-02-12T14:50:05.277Z,2.70
2018-02-12T14:52:08.697Z,2.70
2018-02-12T14:54:11.487Z,2.70
2018-02-12T14:56:14.883Z,2.70
2018-02-12T14:58:17.598Z,2.60
2018-02-12T15:00:21.011Z,2.80
2018-02-12T15:02:24.392Z,2.80
2018-02-12T15:04:27.091Z,2.80
2018-02-12T15:06:29.682Z,2.80
2018-02-12T15:08:32.298Z,2.90
2018-02-12T15:10:34.971Z,3.00
2018-02-12T15:12:37.738Z,3.00
2018-02-12T15:14:40.405Z,3.00
2018-02-12T15:16:43.226Z,3.10
2018-02-12T15:18:46.013Z,3.00
2018-02-12T15:20:49.405Z,3.10
2018-02-12T15:22:52.228Z,3.10
2018-02-12T15:24:55.637Z,3.30
2018-02-12T15:26:58.984Z,3.20
2018-02-12T15:29:01.606Z,3.20
2018-02-12T15:31:05.056Z,3.30
2018-02-12T15:33:07.761Z,3.30
2018-02-12T15:35:11.262Z,3.40
2018-02-12T15:37:14.187Z,3.40
2018-02-12T15:39:16.982Z,2.90
2018-02-12T15:41:20.396Z,2.30
2018-02-12T15:43:23.811Z,2.10
2018-02-12T15:45:26.522Z,2.10
2018-02-12T15:47:29.963Z,2.00
2018-02-12T15:49:32.649Z,1.90
2018-02-12T15:51:35.273Z,2.00
2018-02-12T15:53:38.730Z,2.10
2018-02-12T15:55:42.347Z,2.10
2018-02-12T15:57:45.772Z,2.10
2018-02-12T15:59:49.153Z,2.00
2018-02-12T16:01:51.878Z,2.00
2018-02-12T16:03:55.279Z,1.90
2018-02-12T16:05:57.983Z,1.90
2018-02-12T16:08:01.458Z,1.90
2018-02-12T16:10:04.106Z,1.90
2018-02-12T16:12:07.481Z,1.70
2018-02-12T16:14:10.208Z,1.70
2018-02-12T16:16:13.575Z,1.60
2018-02-12T16:18:16.357Z,1.50
2018-02-12T16:20:19.738Z,1.40
2018-02-12T16:22:22.503Z,1.40
2018-02-12T16:24:25.166Z,1.40
2018-02-12T16:26:27.780Z,1.20
2018-02-12T16:28:30.421Z,1.20
2018-02-12T16:30:33.805Z,1.10
2018-02-12T16:32:36.407Z,1.10
2018-02-12T16:34:39.133Z,1.10
2018-02-12T16:36:42.508Z,1.10
2018-02-12T16:38:45.182Z,1.10
2018-02-12T16:40:48.763Z,0.90
2018-02-12T16:42:52.132Z,0.90
2018-02-12T16:44:54.805Z,0.90
2018-02-12T16:46:57.400Z,0.90
2018-02-12T16:49:00.049Z,0.90
2018-02-12T16:51:02.699Z,0.90
2018-02-12T16:53:05.308Z,0.90
2018-02-12T16:55:07.954Z,0.90
2018-02-12T16:57:11.324Z,0.70
2018-02-12T16:59:14.013Z,0.70
2018-02-12T17:01:16.637Z,0.60
2018-02-12T17:03:19.274Z,0.70
2018-02-12T17:05:21.947Z,0.60
2018-02-12T17:07:25.368Z,0.60
2018-02-12T17:09:28.763Z,0.50
2018-02-12T17:11:32.149Z,0.50
2018-02-12T17:13:34.785Z,0.50
2018-02-12T17:15:38.188Z,0.50
2018-02-12T17:17:40.842Z,0.50
2018-02-12T17:19:43.509Z,0.50
2018-02-12T17:21:46.974Z,0.40
2018-02-12T17:23:49.708Z,0.40
2018-02-12T17:25:53.190Z,0.50
2018-02-12T17:27:55.949Z,0.30
2018-02-12T17:29:58.733Z,0.30
2018-02-12T17:32:02.119Z,0.40
2018-02-12T17:34:04.837Z,0.40
2018-02-12T17:36:08.252Z,0.50
2018-02-12T17:38:11.893Z,0.60
2018-02-12T17:40:14.672Z,0.50
2018-02-12T17:42:18.134Z,0.70
2018-02-12T17:44:20.889Z,0.70
2018-02-12T17:46:24.304Z,0.90
2018-02-12T17:48:27.746Z,1.00
2018-02-12T17:50:30.684Z,1.00
2018-02-12T17:52:33.308Z,1.10
2018-02-12T17:54:36.727Z,1.20
2018-02-12T17:56:40.354Z,1.20
2018-02-12T17:58:43.824Z,1.10
2018-02-12T18:00:46.561Z,1.10
2018-02-12T18:02:49.990Z,1.00
2018-02-12T18:04:53.492Z,1.00
2018-02-12T18:06:56.923Z,0.90
2018-02-12T18:09:00.334Z,0.90
2018-02-12T18:11:03.842Z,0.70
2018-02-12T18:13:07.265Z,0.70
2018-02-12T18:15:10.776Z,0.80
2018-02-12T18:17:14.279Z,0.80
2018-02-12T18:19:17.695Z,0.90
2018-02-12T18:21:21.123Z,1.00
2018-02-12T18:23:24.539Z,1.00
2018-02-12T18:25:27.234Z,1.00
2018-02-12T18:27:30.689Z,1.00
2018-02-12T18:29:33.399Z,1.00
2018-02-12T18:31:35.990Z,1.00
2018-02-12T18:33:38.626Z,1.00
2018-02-12T18:35:42.004Z,0.90
2018-02-12T18:37:45.493Z,0.90
2018-02-12T18:39:48.890Z,0.90
2018-02-12T18:41:51.564Z,0.90
2018-02-12T18:43:55.033Z,0.80
2018-02-12T18:45:57.684Z,0.80
2018-02-12T18:48:01.068Z,0.70
2018-02-12T18:50:03.795Z,0.70
2018-02-12T18:52:07.159Z,0.60
2018-02-12T18:54:09.908Z,0.60
2018-02-12T18:56:13.385Z,0.70
2018-02-12T18:58:16.054Z,0.70
2018-02-12T19:00:18.713Z,0.60
2018-02-12T19:02:22.129Z,0.50
2018-02-12T19:04:25.536Z,0.60
2018-02-12T19:06:28.210Z,0.60
2018-02-12T19:08:30.861Z,0.50
2018-02-12T19:10:33.596Z,0.40
2018-02-12T19:12:37.045Z,0.40
2018-02-12T19:14:40.455Z,0.30
2018-02-12T19:16:43.118Z,0.30
2018-02-12T19:18:45.857Z,0.30
2018-02-12T19:20:49.384Z,0.10
2018-02-12T19:22:52.814Z,0.10
2018-02-12T19:24:55.510Z,0.10
2018-02-12T19:26:58.169Z,0.10
2018-02-12T19:29:00.930Z,0.00
2018-02-12T19:31:03.539Z,-0.10
2018-02-12T19:33:06.201Z,0.00
2018-02-12T19:35:08.847Z,0.00
2018-02-12T19:37:11.587Z,0.10
2018-02-12T19:39:14.271Z,0.20
2018-02-12T19:41:17.726Z,0.10
2018-02-12T19:43:20.342Z,0.10
2018-02-12T19:45:23.004Z,0.10
2018-02-12T19:47:25.791Z,0.10
2018-02-12T19:49:28.442Z,0.10
2018-02-12T19:51:31.131Z,0.10
2018-02-12T19:53:33.869Z,0.20
2018-02-12T19:55:36.605Z,0.30
2018-02-12T19:57:39.262Z,0.20
2018-02-12T19:59:42.785Z,0.30
2018-02-12T20:01:46.161Z,0.30
2018-02-12T20:03:48.894Z,0.30
2018-02-12T20:05:53.849Z,0.10
2018-02-12T20:07:57.323Z,0.10
2018-02-12T20:10:00.012Z,0.10
2018-02-12T20:12:02.706Z,0.10
2018-02-12T20:14:06.156Z,0.00
2018-02-12T20:16:08.870Z,0.00
2018-02-12T20:18:12.311Z,0.00
2018-02-12T20:20:15.097Z,0.00
2018-02-12T20:22:18.536Z,0.00
2018-02-12T20:24:21.167Z,0.00
2018-02-12T20:26:23.907Z,0.10
2018-02-12T20:28:26.580Z,0.00
2018-02-12T20:30:29.957Z,0.00
2018-02-12T20:32:32.640Z,0.00
2018-02-12T20:34:35.402Z,0.00
2018-02-12T20:36:38.063Z,0.00
2018-02-12T20:38:41.374Z,0.00
2018-02-12T20:40:44.090Z,-0.10
2018-02-12T20:42:46.766Z,-0.20
2018-02-12T20:44:49.429Z,-0.30
2018-02-12T20:46:52.129Z,-0.30
2018-02-12T20:48:54.817Z,-0.30
2018-02-12T20:50:57.466Z,-0.20
2018-02-12T20:53:00.093Z,-0.10
2018-02-12T20:55:02.787Z,-0.10
2018-02-12T20:57:06.193Z,-0.10
2018-02-12T20:59:10.040Z,-0.10
2018-02-12T21:01:12.727Z,-0.10
2018-02-12T21:03:16.103Z,0.10
2018-02-12T21:05:18.836Z,0.10
2018-02-12T21:07:22.350Z,0.10
2018-02-12T21:09:25.798Z,0.20
2018-02-12T21:11:28.455Z,0.20
2018-02-12T21:13:31.892Z,0.00
2018-02-12T21:15:34.582Z,0.00
2018-02-12T21:17:37.994Z,-0.20
2018-02-12T21:19:40.656Z,-0.20
2018-02-12T21:21:43.275Z,-0.20
2018-02-12T21:23:46.706Z,-0.10
2018-02-12T21:25:50.218Z,-0.10
2018-02-12T21:27:53.601Z,-0.10
2018-02-12T21:29:56.238Z,-0.20
2018-02-12T21:31:59.119Z,-0.20
2018-02-12T21:34:01.827Z,-0.30
2018-02-12T21:36:05.213Z,-0.30
2018-02-12T21:38:07.931Z,-0.30
2018-02-12T21:40:11.337Z,-0.20
2018-02-12T21:42:14.867Z,-0.10
2018-02-12T21:44:18.329Z,-0.20
2018-02-12T21:46:21.022Z,-0.20
2018-02-12T21:48:23.673Z,-0.30
2018-02-12T21:50:27.139Z,-0.20
2018-02-12T21:52:29.801Z,-0.20
2018-02-12T21:54:32.516Z,-0.10
2018-02-12T21:56:35.184Z,-0.20
2018-02-12T21:58:38.625Z,-0.40
2018-02-12T22:00:41.283Z,-0.40
2018-02-12T22:02:44.704Z,-0.40
2018-02-12T22:04:48.099Z,-0.50
2018-02-12T22:06:50.927Z,-0.50
2018-02-12T22:08:54.326Z,-0.50
2018-02-12T22:10:57.742Z,-0.50
2018-02-12T22:13:00.457Z,-0.50
2018-02-12T22:15:03.098Z,-0.40
2018-02-12T22:17:05.773Z,-0.30
2018-02-12T22:19:08.474Z,-0.30
2018-02-12T22:21:11.142Z,-0.30
2018-02-12T22:23:13.753Z,-0.30
2018-02-12T22:25:16.421Z,-0.30
2018-02-12T22:27:19.951Z,-0.30
2018-02-12T22:29:25.703Z,-0.30
2018-02-12T22:31:29.122Z,-0.20
2018-02-12T22:33:32.642Z,-0.10
2018-02-12T22:35:36.069Z,-0.10
2018-02-12T22:37:38.759Z,-0.20
2018-02-12T22:39:42.202Z,0.00
2018-02-12T22:41:44.828Z,0.00
2018-02-12T22:43:47.569Z,0.00
2018-02-12T22:45:50.242Z,0.00
2018-02-12T22:47:52.858Z,0.10
2018-02-12T22:49:56.226Z,0.00
2018-02-12T22:51:58.919Z,-0.10
2018-02-12T22:54:01.668Z,-0.10
2018-02-12T22:56:05.086Z,-0.20
2018-02-12T22:58:07.724Z,-0.30
2018-02-12T23:00:10.333Z,-0.20
2018-02-12T23:02:13.757Z,-0.20
2018-02-12T23:04:16.413Z,-0.30
2018-02-12T23:06:19.081Z,-0.30
2018-02-12T23:08:22.513Z,-0.20
2018-02-12T23:10:25.134Z,-0.20
2018-02-12T23:12:27.768Z,-0.30
2018-02-12T23:14:30.408Z,-0.30
2018-02-12T23:16:33.047Z,-0.30
2018-02-12T23:18:35.700Z,-0.30
2018-02-12T23:20:38.338Z,-0.30
2018-02-12T23:22:40.969Z,-0.40
2018-02-12T23:24:44.408Z,-0.30
2018-02-12T23:26:47.014Z,-0.30
2018-02-12T23:28:49.673Z,-0.30
2018-02-12T23:30:53.192Z,-0.50
2018-02-12T23:32:56.562Z,-0.50
2018-02-12T23:34:59.198Z,-0.50
2018-02-12T23:37:01.854Z,-0.50
2018-02-12T23:39:04.452Z,-0.50
2018-02-12T23:41:07.088Z,-0.60
2018-02-12T23:43:10.503Z,-0.80
2018-02-12T23:45:13.901Z,-0.80
2018-02-12T23:47:16.614Z,-0.80
2018-02-12T23:49:19.322Z,-0.80
2018-02-12T23:51:22.729Z,-0.70
2018-02-12T23:53:26.154Z,-0.80
2018-02-12T23:55:29.542Z,-0.90
2018-02-12T23:57:32.182Z,-0.90
2018-02-12T23:59:34.852Z,-0.90
